Terminal Aerodrome Forecast
Issued by NWS

Home | Current Version | Previous Version | Text Only | Print | Product List | Glossary On
Versions: 1 2 3 4 5 6 7 8 9 10 11 12 13 14 15 16 17
139
FTUS46 KLOX 291739
TAFPRB
TAF
KPRB 291739Z 2918/3018 19009KT P6SM SKC
     FM292100 22012G22KT P6SM SCT250
     FM300400 20010KT P6SM FEW006
     FM300800 VRB03KT 3SM BR OVC004
     FM301500 VRB03KT 5SM HZ OVC007
     FM301700 VRB03KT 6SM HZ SCT007=

USA.gov is the U.S. government's official web portal to all federal, state and local government web resources and services.